sensor_id;sensor_type;location;lat;lon;timestamp;P1;durP1;ratioP1;P2;durP2;ratioP2
69260;SDS011;56378;52.404;20.816;2022-10-26T00:02:24;24.30;;;11.33;;
69260;SDS011;56378;52.404;20.816;2022-10-26T00:04:50;23.73;;;11.60;;
69260;SDS011;56378;52.404;20.816;2022-10-26T00:07:16;23.13;;;11.93;;
69260;SDS011;56378;52.404;20.816;2022-10-26T00:09:41;28.10;;;12.65;;
69260;SDS011;56378;52.404;20.816;2022-10-26T00:12:07;24.43;;;12.00;;
69260;SDS011;56378;52.404;20.816;2022-10-26T00:14:33;22.58;;;12.07;;
69260;SDS011;56378;52.404;20.816;2022-10-26T00:16:59;21.67;;;12.10;;
69260;SDS011;56378;52.404;20.816;2022-10-26T00:19:25;26.05;;;12.63;;
69260;SDS011;56378;52.404;20.816;2022-10-26T00:21:51;25.47;;;12.77;;
69260;SDS011;56378;52.404;20.816;2022-10-26T00:24:16;21.27;;;11.23;;
69260;SDS011;56378;52.404;20.816;2022-10-26T00:26:42;23.35;;;11.98;;
69260;SDS011;56378;52.404;20.816;2022-10-26T00:29:10;22.83;;;11.88;;
69260;SDS011;56378;52.404;20.816;2022-10-26T00:31:37;26.87;;;12.23;;
69260;SDS011;56378;52.404;20.816;2022-10-26T00:34:03;25.83;;;11.98;;
69260;SDS011;56378;52.404;20.816;2022-10-26T00:36:30;24.60;;;12.25;;
69260;SDS011;56378;52.404;20.816;2022-10-26T00:38:56;23.27;;;13.53;;
69260;SDS011;56378;52.404;20.816;2022-10-26T00:41:23;21.20;;;11.37;;
69260;SDS011;56378;52.404;20.816;2022-10-26T00:43:51;21.38;;;12.38;;
69260;SDS011;56378;52.404;20.816;2022-10-26T00:46:36;26.23;;;12.85;;
69260;SDS011;56378;52.404;20.816;2022-10-26T00:49:10;26.42;;;12.27;;
69260;SDS011;56378;52.404;20.816;2022-10-26T00:51:41;26.70;;;13.25;;
69260;SDS011;56378;52.404;20.816;2022-10-26T00:54:17;27.60;;;12.73;;
69260;SDS011;56378;52.404;20.816;2022-10-26T00:56:45;28.23;;;13.60;;
69260;SDS011;56378;52.404;20.816;2022-10-26T00:59:12;28.60;;;13.52;;
69260;SDS011;56378;52.404;20.816;2022-10-26T01:01:41;26.38;;;12.73;;
69260;SDS011;56378;52.404;20.816;2022-10-26T01:04:09;24.17;;;12.93;;
69260;SDS011;56378;52.404;20.816;2022-10-26T01:06:36;22.70;;;12.80;;
69260;SDS011;56378;52.404;20.816;2022-10-26T01:09:03;25.35;;;12.65;;
69260;SDS011;56378;52.404;20.816;2022-10-26T01:11:29;26.52;;;12.95;;
69260;SDS011;56378;52.404;20.816;2022-10-26T01:13:54;20.73;;;12.50;;
69260;SDS011;56378;52.404;20.816;2022-10-26T01:27:17;27.00;;;13.05;;
69260;SDS011;56378;52.404;20.816;2022-10-26T01:29:53;26.70;;;13.27;;
69260;SDS011;56378;52.404;20.816;2022-10-26T01:38:11;27.88;;;13.75;;
69260;SDS011;56378;52.404;20.816;2022-10-26T01:43:39;22.60;;;12.80;;
69260;SDS011;56378;52.404;20.816;2022-10-26T01:46:08;24.85;;;12.55;;
69260;SDS011;56378;52.404;20.816;2022-10-26T01:48:35;23.63;;;12.55;;
69260;SDS011;56378;52.404;20.816;2022-10-26T01:51:02;25.58;;;12.85;;
69260;SDS011;56378;52.404;20.816;2022-10-26T01:53:30;23.40;;;13.20;;
69260;SDS011;56378;52.404;20.816;2022-10-26T01:55:56;22.53;;;11.93;;
69260;SDS011;56378;52.404;20.816;2022-10-26T02:09:41;22.95;;;13.30;;
69260;SDS011;56378;52.404;20.816;2022-10-26T02:15:19;25.15;;;13.35;;
69260;SDS011;56378;52.404;20.816;2022-10-26T02:17:50;25.20;;;13.57;;
69260;SDS011;56378;52.404;20.816;2022-10-26T02:20:30;29.57;;;13.70;;
69260;SDS011;56378;52.404;20.816;2022-10-26T02:23:06;34.00;;;14.45;;
69260;SDS011;56378;52.404;20.816;2022-10-26T02:25:36;27.10;;;13.95;;
69260;SDS011;56378;52.404;20.816;2022-10-26T02:28:06;29.38;;;14.35;;
69260;SDS011;56378;52.404;20.816;2022-10-26T02:30:36;28.33;;;14.80;;
69260;SDS011;56378;52.404;20.816;2022-10-26T02:33:05;29.47;;;14.90;;
69260;SDS011;56378;52.404;20.816;2022-10-26T02:35:34;27.40;;;15.50;;
69260;SDS011;56378;52.404;20.816;2022-10-26T02:38:03;33.13;;;15.98;;
69260;SDS011;56378;52.404;20.816;2022-10-26T02:40:31;30.33;;;14.70;;
69260;SDS011;56378;52.404;20.816;2022-10-26T02:43:01;28.52;;;14.63;;
69260;SDS011;56378;52.404;20.816;2022-10-26T02:45:32;29.67;;;15.13;;
69260;SDS011;56378;52.404;20.816;2022-10-26T02:48:03;26.27;;;15.10;;
69260;SDS011;56378;52.404;20.816;2022-10-26T02:50:45;36.40;;;16.30;;
69260;SDS011;56378;52.404;20.816;2022-10-26T02:53:26;30.50;;;14.95;;
69260;SDS011;56378;52.404;20.816;2022-10-26T02:55:59;27.35;;;15.00;;
69260;SDS011;56378;52.404;20.816;2022-10-26T02:58:31;40.67;;;15.90;;
69260;SDS011;56378;52.404;20.816;2022-10-26T03:01:01;31.20;;;15.80;;
69260;SDS011;56378;52.404;20.816;2022-10-26T03:03:27;33.25;;;16.00;;
69260;SDS011;56378;52.404;20.816;2022-10-26T03:05:53;32.20;;;16.02;;
69260;SDS011;56378;52.404;20.816;2022-10-26T03:08:19;29.47;;;15.83;;
69260;SDS011;56378;52.404;20.816;2022-10-26T03:10:45;33.17;;;16.23;;
69260;SDS011;56378;52.404;20.816;2022-10-26T03:13:11;34.65;;;16.02;;
69260;SDS011;56378;52.404;20.816;2022-10-26T03:15:37;29.40;;;15.20;;
69260;SDS011;56378;52.404;20.816;2022-10-26T03:18:03;34.25;;;16.27;;
69260;SDS011;56378;52.404;20.816;2022-10-26T03:20:30;37.47;;;16.52;;
69260;SDS011;56378;52.404;20.816;2022-10-26T03:22:55;37.05;;;16.70;;
69260;SDS011;56378;52.404;20.816;2022-10-26T03:25:22;31.67;;;15.70;;
69260;SDS011;56378;52.404;20.816;2022-10-26T03:27:58;38.25;;;17.13;;
69260;SDS011;56378;52.404;20.816;2022-10-26T03:30:26;35.38;;;16.17;;
69260;SDS011;56378;52.404;20.816;2022-10-26T03:32:52;40.90;;;16.97;;
69260;SDS011;56378;52.404;20.816;2022-10-26T03:35:18;37.95;;;17.13;;
69260;SDS011;56378;52.404;20.816;2022-10-26T03:37:44;37.80;;;17.27;;
69260;SDS011;56378;52.404;20.816;2022-10-26T03:40:10;38.00;;;16.43;;
69260;SDS011;56378;52.404;20.816;2022-10-26T03:42:36;36.30;;;16.13;;
69260;SDS011;56378;52.404;20.816;2022-10-26T03:45:03;40.13;;;16.55;;
69260;SDS011;56378;52.404;20.816;2022-10-26T03:47:29;43.95;;;18.85;;
69260;SDS011;56378;52.404;20.816;2022-10-26T03:49:54;43.77;;;18.67;;
69260;SDS011;56378;52.404;20.816;2022-10-26T03:52:20;41.75;;;18.88;;
69260;SDS011;56378;52.404;20.816;2022-10-26T03:54:48;36.90;;;16.63;;
69260;SDS011;56378;52.404;20.816;2022-10-26T03:57:15;36.00;;;16.47;;
69260;SDS011;56378;52.404;20.816;2022-10-26T03:59:41;32.72;;;15.38;;
69260;SDS011;56378;52.404;20.816;2022-10-26T04:02:06;31.20;;;15.23;;
69260;SDS011;56378;52.404;20.816;2022-10-26T04:04:32;32.40;;;15.10;;
69260;SDS011;56378;52.404;20.816;2022-10-26T04:06:58;32.67;;;15.40;;
69260;SDS011;56378;52.404;20.816;2022-10-26T04:09:23;35.30;;;16.83;;
69260;SDS011;56378;52.404;20.816;2022-10-26T04:11:49;36.67;;;18.03;;
69260;SDS011;56378;52.404;20.816;2022-10-26T04:14:15;30.88;;;14.32;;
69260;SDS011;56378;52.404;20.816;2022-10-26T04:16:40;32.27;;;14.43;;
69260;SDS011;56378;52.404;20.816;2022-10-26T04:19:06;30.92;;;14.50;;
69260;SDS011;56378;52.404;20.816;2022-10-26T04:21:32;31.63;;;14.60;;
69260;SDS011;56378;52.404;20.816;2022-10-26T04:23:59;33.08;;;13.95;;
69260;SDS011;56378;52.404;20.816;2022-10-26T04:26:25;32.10;;;14.35;;
69260;SDS011;56378;52.404;20.816;2022-10-26T04:28:51;34.65;;;13.52;;
69260;SDS011;56378;52.404;20.816;2022-10-26T04:31:17;31.03;;;13.57;;
69260;SDS011;56378;52.404;20.816;2022-10-26T04:33:43;26.77;;;13.07;;
69260;SDS011;56378;52.404;20.816;2022-10-26T04:36:08;32.33;;;14.20;;
69260;SDS011;56378;52.404;20.816;2022-10-26T04:38:34;32.78;;;14.35;;
69260;SDS011;56378;52.404;20.816;2022-10-26T04:41:00;34.87;;;14.97;;
69260;SDS011;56378;52.404;20.816;2022-10-26T04:43:25;31.27;;;13.90;;
69260;SDS011;56378;52.404;20.816;2022-10-26T04:45:55;35.77;;;15.00;;
69260;SDS011;56378;52.404;20.816;2022-10-26T04:48:21;32.38;;;15.90;;
69260;SDS011;56378;52.404;20.816;2022-10-26T04:50:47;30.33;;;14.77;;
69260;SDS011;56378;52.404;20.816;2022-10-26T04:53:13;33.80;;;14.83;;
69260;SDS011;56378;52.404;20.816;2022-10-26T04:55:39;36.30;;;16.10;;
69260;SDS011;56378;52.404;20.816;2022-10-26T04:58:05;32.53;;;15.90;;
69260;SDS011;56378;52.404;20.816;2022-10-26T05:00:30;34.38;;;15.25;;
69260;SDS011;56378;52.404;20.816;2022-10-26T05:03:06;36.53;;;16.08;;
69260;SDS011;56378;52.404;20.816;2022-10-26T05:05:34;34.13;;;15.37;;
69260;SDS011;56378;52.404;20.816;2022-10-26T05:08:00;31.20;;;14.43;;
69260;SDS011;56378;52.404;20.816;2022-10-26T05:10:26;28.77;;;13.60;;
69260;SDS011;56378;52.404;20.816;2022-10-26T05:12:52;33.57;;;13.80;;
69260;SDS011;56378;52.404;20.816;2022-10-26T05:15:19;29.63;;;13.25;;
69260;SDS011;56378;52.404;20.816;2022-10-26T05:17:45;28.75;;;14.18;;
69260;SDS011;56378;52.404;20.816;2022-10-26T05:20:12;29.02;;;14.32;;
69260;SDS011;56378;52.404;20.816;2022-10-26T05:22:41;27.00;;;13.17;;
69260;SDS011;56378;52.404;20.816;2022-10-26T05:25:07;33.97;;;15.07;;
69260;SDS011;56378;52.404;20.816;2022-10-26T05:27:33;32.20;;;15.27;;
69260;SDS011;56378;52.404;20.816;2022-10-26T05:29:58;34.37;;;16.50;;
69260;SDS011;56378;52.404;20.816;2022-10-26T05:32:24;30.13;;;15.43;;
69260;SDS011;56378;52.404;20.816;2022-10-26T05:34:49;32.70;;;15.70;;
69260;SDS011;56378;52.404;20.816;2022-10-26T05:37:15;31.95;;;14.90;;
69260;SDS011;56378;52.404;20.816;2022-10-26T05:39:41;29.40;;;14.20;;
69260;SDS011;56378;52.404;20.816;2022-10-26T05:42:07;30.17;;;14.75;;
69260;SDS011;56378;52.404;20.816;2022-10-26T05:44:33;30.23;;;15.03;;
69260;SDS011;56378;52.404;20.816;2022-10-26T05:46:58;28.52;;;14.73;;
69260;SDS011;56378;52.404;20.816;2022-10-26T05:49:24;32.73;;;14.47;;
69260;SDS011;56378;52.404;20.816;2022-10-26T05:51:50;32.30;;;14.52;;
69260;SDS011;56378;52.404;20.816;2022-10-26T05:54:15;30.47;;;14.93;;
69260;SDS011;56378;52.404;20.816;2022-10-26T05:56:41;25.43;;;14.03;;
69260;SDS011;56378;52.404;20.816;2022-10-26T05:59:11;30.17;;;14.50;;
69260;SDS011;56378;52.404;20.816;2022-10-26T06:01:53;30.67;;;15.13;;
69260;SDS011;56378;52.404;20.816;2022-10-26T06:07:17;28.88;;;15.88;;
69260;SDS011;56378;52.404;20.816;2022-10-26T06:09:47;33.93;;;16.13;;
69260;SDS011;56378;52.404;20.816;2022-10-26T06:12:13;30.48;;;15.60;;
69260;SDS011;56378;52.404;20.816;2022-10-26T06:14:40;34.05;;;16.73;;
69260;SDS011;56378;52.404;20.816;2022-10-26T06:17:10;30.25;;;16.15;;
69260;SDS011;56378;52.404;20.816;2022-10-26T06:23:29;35.70;;;18.00;;
69260;SDS011;56378;52.404;20.816;2022-10-26T06:31:12;34.55;;;17.52;;
69260;SDS011;56378;52.404;20.816;2022-10-26T06:33:38;29.52;;;16.25;;
69260;SDS011;56378;52.404;20.816;2022-10-26T06:38:37;33.35;;;16.42;;
69260;SDS011;56378;52.404;20.816;2022-10-26T06:41:08;32.92;;;16.63;;
69260;SDS011;56378;52.404;20.816;2022-10-26T06:43:36;29.15;;;16.33;;
69260;SDS011;56378;52.404;20.816;2022-10-26T06:46:12;28.80;;;15.17;;
69260;SDS011;56378;52.404;20.816;2022-10-26T06:48:43;25.50;;;13.77;;
69260;SDS011;56378;52.404;20.816;2022-10-26T06:51:22;26.65;;;13.82;;
69260;SDS011;56378;52.404;20.816;2022-10-26T06:54:24;28.70;;;14.65;;
69260;SDS011;56378;52.404;20.816;2022-10-26T06:56:46;26.63;;;13.38;;
69260;SDS011;56378;52.404;20.816;2022-10-26T06:59:36;27.73;;;13.50;;
69260;SDS011;56378;52.404;20.816;2022-10-26T07:02:04;28.98;;;12.90;;
69260;SDS011;56378;52.404;20.816;2022-10-26T07:04:29;27.42;;;13.23;;
69260;SDS011;56378;52.404;20.816;2022-10-26T07:06:55;25.80;;;13.27;;
69260;SDS011;56378;52.404;20.816;2022-10-26T07:09:21;28.67;;;13.35;;
69260;SDS011;56378;52.404;20.816;2022-10-26T07:11:47;25.80;;;12.23;;
69260;SDS011;56378;52.404;20.816;2022-10-26T07:14:13;26.70;;;12.40;;
69260;SDS011;56378;52.404;20.816;2022-10-26T07:16:38;23.03;;;11.33;;
69260;SDS011;56378;52.404;20.816;2022-10-26T07:19:04;25.38;;;11.52;;
69260;SDS011;56378;52.404;20.816;2022-10-26T07:21:29;24.00;;;11.13;;
69260;SDS011;56378;52.404;20.816;2022-10-26T07:23:55;23.25;;;11.52;;
69260;SDS011;56378;52.404;20.816;2022-10-26T07:26:21;22.30;;;11.53;;
69260;SDS011;56378;52.404;20.816;2022-10-26T07:28:49;25.83;;;11.82;;
69260;SDS011;56378;52.404;20.816;2022-10-26T07:31:15;21.70;;;10.13;;
69260;SDS011;56378;52.404;20.816;2022-10-26T07:33:41;23.08;;;11.40;;
69260;SDS011;56378;52.404;20.816;2022-10-26T07:36:09;26.50;;;11.30;;
69260;SDS011;56378;52.404;20.816;2022-10-26T07:38:35;21.13;;;9.75;;
69260;SDS011;56378;52.404;20.816;2022-10-26T07:41:02;19.30;;;9.43;;
69260;SDS011;56378;52.404;20.816;2022-10-26T07:43:29;22.55;;;9.45;;
69260;SDS011;56378;52.404;20.816;2022-10-26T07:45:54;21.77;;;10.27;;
69260;SDS011;56378;52.404;20.816;2022-10-26T07:48:20;28.70;;;12.00;;
69260;SDS011;56378;52.404;20.816;2022-10-26T07:50:46;37.63;;;14.00;;
69260;SDS011;56378;52.404;20.816;2022-10-26T07:53:12;62.95;;;20.08;;
69260;SDS011;56378;52.404;20.816;2022-10-26T07:55:37;31.73;;;12.27;;
69260;SDS011;56378;52.404;20.816;2022-10-26T07:58:03;25.13;;;10.30;;
69260;SDS011;56378;52.404;20.816;2022-10-26T08:00:29;21.77;;;10.13;;
69260;SDS011;56378;52.404;20.816;2022-10-26T08:02:55;24.10;;;10.30;;
69260;SDS011;56378;52.404;20.816;2022-10-26T08:05:21;22.98;;;10.20;;
69260;SDS011;56378;52.404;20.816;2022-10-26T08:07:47;23.83;;;10.48;;
69260;SDS011;56378;52.404;20.816;2022-10-26T08:10:13;24.23;;;10.53;;
69260;SDS011;56378;52.404;20.816;2022-10-26T08:12:40;24.02;;;10.48;;
69260;SDS011;56378;52.404;20.816;2022-10-26T08:15:07;23.27;;;10.30;;
69260;SDS011;56378;52.404;20.816;2022-10-26T08:17:33;24.48;;;11.05;;
69260;SDS011;56378;52.404;20.816;2022-10-26T08:19:59;27.13;;;10.87;;
69260;SDS011;56378;52.404;20.816;2022-10-26T08:22:27;25.02;;;10.43;;
69260;SDS011;56378;52.404;20.816;2022-10-26T08:24:54;25.55;;;11.50;;
69260;SDS011;56378;52.404;20.816;2022-10-26T08:27:20;25.83;;;10.37;;
69260;SDS011;56378;52.404;20.816;2022-10-26T08:29:45;21.98;;;10.05;;
69260;SDS011;56378;52.404;20.816;2022-10-26T08:32:11;24.20;;;9.73;;
69260;SDS011;56378;52.404;20.816;2022-10-26T08:34:37;24.05;;;10.02;;
69260;SDS011;56378;52.404;20.816;2022-10-26T08:37:02;20.40;;;9.07;;
69260;SDS011;56378;52.404;20.816;2022-10-26T08:39:28;19.75;;;8.90;;
69260;SDS011;56378;52.404;20.816;2022-10-26T08:42:17;17.70;;;8.55;;
69260;SDS011;56378;52.404;20.816;2022-10-26T08:44:47;19.37;;;7.90;;
69260;SDS011;56378;52.404;20.816;2022-10-26T08:47:18;17.88;;;8.38;;
69260;SDS011;56378;52.404;20.816;2022-10-26T08:50:00;18.30;;;8.70;;
69260;SDS011;56378;52.404;20.816;2022-10-26T08:52:33;17.17;;;8.35;;
69260;SDS011;56378;52.404;20.816;2022-10-26T08:55:17;19.10;;;9.40;;
69260;SDS011;56378;52.404;20.816;2022-10-26T08:57:47;22.43;;;10.03;;
69260;SDS011;56378;52.404;20.816;2022-10-26T09:00:14;22.98;;;11.00;;
69260;SDS011;56378;52.404;20.816;2022-10-26T09:02:44;27.25;;;11.85;;
69260;SDS011;56378;52.404;20.816;2022-10-26T09:05:14;28.00;;;13.07;;
69260;SDS011;56378;52.404;20.816;2022-10-26T09:16:01;23.33;;;10.27;;
69260;SDS011;56378;52.404;20.816;2022-10-26T09:18:50;22.50;;;10.48;;
69260;SDS011;56378;52.404;20.816;2022-10-26T09:24:32;27.73;;;10.77;;
69260;SDS011;56378;52.404;20.816;2022-10-26T09:27:06;24.30;;;10.32;;
69260;SDS011;56378;52.404;20.816;2022-10-26T09:29:44;20.45;;;10.80;;
69260;SDS011;56378;52.404;20.816;2022-10-26T09:32:14;22.27;;;9.82;;
69260;SDS011;56378;52.404;20.816;2022-10-26T09:34:52;24.63;;;9.98;;
69260;SDS011;56378;52.404;20.816;2022-10-26T09:37:23;22.23;;;9.53;;
69260;SDS011;56378;52.404;20.816;2022-10-26T09:40:10;22.20;;;10.23;;
69260;SDS011;56378;52.404;20.816;2022-10-26T09:45:17;23.40;;;10.25;;
69260;SDS011;56378;52.404;20.816;2022-10-26T09:47:49;21.55;;;10.60;;
69260;SDS011;56378;52.404;20.816;2022-10-26T09:52:43;21.92;;;10.35;;
69260;SDS011;56378;52.404;20.816;2022-10-26T09:55:09;23.03;;;10.27;;
69260;SDS011;56378;52.404;20.816;2022-10-26T09:57:37;20.63;;;9.48;;
69260;SDS011;56378;52.404;20.816;2022-10-26T10:00:15;21.75;;;9.07;;
69260;SDS011;56378;52.404;20.816;2022-10-26T10:02:43;21.40;;;9.80;;
69260;SDS011;56378;52.404;20.816;2022-10-26T10:05:35;22.40;;;10.27;;
69260;SDS011;56378;52.404;20.816;2022-10-26T10:13:41;26.90;;;10.85;;
69260;SDS011;56378;52.404;20.816;2022-10-26T10:18:36;23.60;;;11.63;;
69260;SDS011;56378;52.404;20.816;2022-10-26T10:21:03;26.55;;;13.18;;
69260;SDS011;56378;52.404;20.816;2022-10-26T10:23:45;24.05;;;11.68;;
69260;SDS011;56378;52.404;20.816;2022-10-26T10:26:19;23.48;;;10.35;;
69260;SDS011;56378;52.404;20.816;2022-10-26T10:28:55;23.93;;;10.60;;
69260;SDS011;56378;52.404;20.816;2022-10-26T10:31:26;26.23;;;11.98;;
69260;SDS011;56378;52.404;20.816;2022-10-26T10:33:54;24.65;;;10.90;;
69260;SDS011;56378;52.404;20.816;2022-10-26T10:36:21;28.30;;;10.75;;
69260;SDS011;56378;52.404;20.816;2022-10-26T10:38:50;23.02;;;9.63;;
69260;SDS011;56378;52.404;20.816;2022-10-26T10:41:18;23.73;;;9.40;;
69260;SDS011;56378;52.404;20.816;2022-10-26T10:43:45;20.67;;;9.63;;
69260;SDS011;56378;52.404;20.816;2022-10-26T10:46:41;18.50;;;8.85;;
69260;SDS011;56378;52.404;20.816;2022-10-26T10:49:15;23.15;;;9.38;;
69260;SDS011;56378;52.404;20.816;2022-10-26T10:51:45;23.25;;;9.40;;
69260;SDS011;56378;52.404;20.816;2022-10-26T10:59:50;20.52;;;9.27;;
69260;SDS011;56378;52.404;20.816;2022-10-26T11:07:57;21.20;;;9.53;;
69260;SDS011;56378;52.404;20.816;2022-10-26T11:10:28;21.30;;;9.57;;
69260;SDS011;56378;52.404;20.816;2022-10-26T11:13:02;24.75;;;10.68;;
69260;SDS011;56378;52.404;20.816;2022-10-26T11:15:50;20.50;;;9.60;;
69260;SDS011;56378;52.404;20.816;2022-10-26T11:18:57;20.52;;;8.93;;
69260;SDS011;56378;52.404;20.816;2022-10-26T11:21:28;21.00;;;8.70;;
69260;SDS011;56378;52.404;20.816;2022-10-26T11:29:40;20.55;;;9.30;;
69260;SDS011;56378;52.404;20.816;2022-10-26T11:32:29;22.70;;;9.90;;
69260;SDS011;56378;52.404;20.816;2022-10-26T11:40:21;18.42;;;8.82;;
69260;SDS011;56378;52.404;20.816;2022-10-26T11:43:11;20.15;;;9.40;;
69260;SDS011;56378;52.404;20.816;2022-10-26T11:45:43;19.45;;;8.73;;
69260;SDS011;56378;52.404;20.816;2022-10-26T11:48:20;20.30;;;8.83;;
69260;SDS011;56378;52.404;20.816;2022-10-26T11:50:49;18.83;;;9.43;;
69260;SDS011;56378;52.404;20.816;2022-10-26T11:53:23;19.45;;;9.50;;
69260;SDS011;56378;52.404;20.816;2022-10-26T11:55:56;23.27;;;8.52;;
69260;SDS011;56378;52.404;20.816;2022-10-26T11:58:24;21.15;;;9.13;;
69260;SDS011;56378;52.404;20.816;2022-10-26T12:00:52;21.27;;;8.97;;
69260;SDS011;56378;52.404;20.816;2022-10-26T12:03:25;20.80;;;9.02;;
69260;SDS011;56378;52.404;20.816;2022-10-26T12:05:57;20.75;;;8.85;;
69260;SDS011;56378;52.404;20.816;2022-10-26T12:11:05;19.60;;;8.93;;
69260;SDS011;56378;52.404;20.816;2022-10-26T12:13:57;19.70;;;8.63;;
69260;SDS011;56378;52.404;20.816;2022-10-26T12:19:01;19.23;;;8.95;;
69260;SDS011;56378;52.404;20.816;2022-10-26T12:21:33;18.65;;;8.77;;
69260;SDS011;56378;52.404;20.816;2022-10-26T12:24:00;17.13;;;8.27;;
69260;SDS011;56378;52.404;20.816;2022-10-26T12:27:02;21.40;;;10.07;;
69260;SDS011;56378;52.404;20.816;2022-10-26T12:34:58;25.45;;;12.20;;
69260;SDS011;56378;52.404;20.816;2022-10-26T12:37:35;30.90;;;12.80;;
69260;SDS011;56378;52.404;20.816;2022-10-26T12:42:55;22.70;;;10.77;;
69260;SDS011;56378;52.404;20.816;2022-10-26T12:45:22;20.10;;;10.00;;
69260;SDS011;56378;52.404;20.816;2022-10-26T12:52:43;23.70;;;10.55;;
69260;SDS011;56378;52.404;20.816;2022-10-26T13:09:08;23.88;;;9.50;;
69260;SDS011;56378;52.404;20.816;2022-10-26T13:12:02;20.47;;;10.00;;
69260;SDS011;56378;52.404;20.816;2022-10-26T13:14:36;21.05;;;9.88;;
69260;SDS011;56378;52.404;20.816;2022-10-26T13:17:18;20.48;;;10.45;;
69260;SDS011;56378;52.404;20.816;2022-10-26T13:19:54;22.02;;;10.52;;
69260;SDS011;56378;52.404;20.816;2022-10-26T13:22:28;22.85;;;10.50;;
69260;SDS011;56378;52.404;20.816;2022-10-26T13:25:03;23.27;;;9.40;;
69260;SDS011;56378;52.404;20.816;2022-10-26T13:32:40;20.95;;;9.93;;
69260;SDS011;56378;52.404;20.816;2022-10-26T13:35:12;23.35;;;10.35;;
69260;SDS011;56378;52.404;20.816;2022-10-26T13:37:43;25.13;;;10.10;;
69260;SDS011;56378;52.404;20.816;2022-10-26T13:40:16;22.75;;;9.50;;
69260;SDS011;56378;52.404;20.816;2022-10-26T13:42:56;20.98;;;8.77;;
69260;SDS011;56378;52.404;20.816;2022-10-26T13:45:27;25.27;;;10.50;;
69260;SDS011;56378;52.404;20.816;2022-10-26T13:50:56;22.07;;;9.60;;
69260;SDS011;56378;52.404;20.816;2022-10-26T13:53:40;23.75;;;10.23;;
69260;SDS011;56378;52.404;20.816;2022-10-26T13:59:19;20.40;;;9.68;;
69260;SDS011;56378;52.404;20.816;2022-10-26T14:01:39;19.80;;;9.23;;
69260;SDS011;56378;52.404;20.816;2022-10-26T14:04:15;18.70;;;9.13;;
69260;SDS011;56378;52.404;20.816;2022-10-26T14:06:42;19.58;;;9.02;;
69260;SDS011;56378;52.404;20.816;2022-10-26T14:09:14;18.90;;;9.77;;
69260;SDS011;56378;52.404;20.816;2022-10-26T14:11:42;18.30;;;8.57;;
69260;SDS011;56378;52.404;20.816;2022-10-26T14:14:15;19.88;;;9.55;;
69260;SDS011;56378;52.404;20.816;2022-10-26T14:16:59;21.77;;;8.93;;
69260;SDS011;56378;52.404;20.816;2022-10-26T14:19:33;18.85;;;9.32;;
69260;SDS011;56378;52.404;20.816;2022-10-26T14:22:02;22.63;;;9.98;;
69260;SDS011;56378;52.404;20.816;2022-10-26T14:24:30;18.73;;;9.20;;
69260;SDS011;56378;52.404;20.816;2022-10-26T14:27:13;19.20;;;9.25;;
69260;SDS011;56378;52.404;20.816;2022-10-26T14:29:42;23.38;;;9.68;;
69260;SDS011;56378;52.404;20.816;2022-10-26T14:32:31;21.35;;;9.48;;
69260;SDS011;56378;52.404;20.816;2022-10-26T14:34:57;20.80;;;9.60;;
69260;SDS011;56378;52.404;20.816;2022-10-26T14:40:01;18.85;;;8.95;;
69260;SDS011;56378;52.404;20.816;2022-10-26T14:42:29;18.52;;;8.90;;
69260;SDS011;56378;52.404;20.816;2022-10-26T14:44:58;18.63;;;8.77;;
69260;SDS011;56378;52.404;20.816;2022-10-26T14:47:30;19.13;;;9.05;;
69260;SDS011;56378;52.404;20.816;2022-10-26T14:49:57;18.73;;;9.33;;
69260;SDS011;56378;52.404;20.816;2022-10-26T14:55:02;19.55;;;8.50;;
69260;SDS011;56378;52.404;20.816;2022-10-26T14:57:29;18.23;;;8.48;;
69260;SDS011;56378;52.404;20.816;2022-10-26T15:00:17;18.45;;;8.18;;
69260;SDS011;56378;52.404;20.816;2022-10-26T15:02:45;17.20;;;8.67;;
69260;SDS011;56378;52.404;20.816;2022-10-26T15:07:56;19.58;;;8.40;;
69260;SDS011;56378;52.404;20.816;2022-10-26T15:13:10;21.77;;;10.15;;
69260;SDS011;56378;52.404;20.816;2022-10-26T15:15:49;23.73;;;10.80;;
69260;SDS011;56378;52.404;20.816;2022-10-26T15:20:47;27.40;;;12.90;;
69260;SDS011;56378;52.404;20.816;2022-10-26T15:23:18;34.13;;;14.38;;
69260;SDS011;56378;52.404;20.816;2022-10-26T15:25:53;26.02;;;12.93;;
69260;SDS011;56378;52.404;20.816;2022-10-26T15:28:31;30.80;;;12.93;;
69260;SDS011;56378;52.404;20.816;2022-10-26T15:33:39;26.80;;;11.35;;
69260;SDS011;56378;52.404;20.816;2022-10-26T15:38:43;25.58;;;11.10;;
69260;SDS011;56378;52.404;20.816;2022-10-26T15:41:31;27.57;;;11.93;;
69260;SDS011;56378;52.404;20.816;2022-10-26T15:43:58;24.63;;;9.75;;
69260;SDS011;56378;52.404;20.816;2022-10-26T15:46:30;23.00;;;10.68;;
69260;SDS011;56378;52.404;20.816;2022-10-26T15:48:58;23.85;;;9.88;;
69260;SDS011;56378;52.404;20.816;2022-10-26T15:51:25;22.88;;;10.35;;
69260;SDS011;56378;52.404;20.816;2022-10-26T15:53:53;19.17;;;9.30;;
69260;SDS011;56378;52.404;20.816;2022-10-26T15:56:21;25.52;;;10.00;;
69260;SDS011;56378;52.404;20.816;2022-10-26T15:58:48;19.60;;;10.10;;
69260;SDS011;56378;52.404;20.816;2022-10-26T16:01:18;22.20;;;10.38;;
69260;SDS011;56378;52.404;20.816;2022-10-26T16:03:46;23.13;;;12.60;;
69260;SDS011;56378;52.404;20.816;2022-10-26T16:06:22;30.00;;;16.30;;
69260;SDS011;56378;52.404;20.816;2022-10-26T16:08:56;45.90;;;21.00;;
69260;SDS011;56378;52.404;20.816;2022-10-26T16:11:22;41.35;;;22.90;;
69260;SDS011;56378;52.404;20.816;2022-10-26T16:13:49;36.28;;;19.80;;
69260;SDS011;56378;52.404;20.816;2022-10-26T16:16:15;38.73;;;19.20;;
69260;SDS011;56378;52.404;20.816;2022-10-26T16:18:42;33.17;;;17.67;;
69260;SDS011;56378;52.404;20.816;2022-10-26T16:21:12;30.73;;;16.65;;
69260;SDS011;56378;52.404;20.816;2022-10-26T16:23:38;34.67;;;16.27;;
69260;SDS011;56378;52.404;20.816;2022-10-26T16:26:05;39.67;;;18.50;;
69260;SDS011;56378;52.404;20.816;2022-10-26T16:28:31;45.10;;;20.40;;
69260;SDS011;56378;52.404;20.816;2022-10-26T16:30:57;43.88;;;21.88;;
69260;SDS011;56378;52.404;20.816;2022-10-26T16:33:28;33.92;;;17.48;;
69260;SDS011;56378;52.404;20.816;2022-10-26T16:35:57;30.73;;;16.40;;
69260;SDS011;56378;52.404;20.816;2022-10-26T16:38:24;34.28;;;15.95;;
69260;SDS011;56378;52.404;20.816;2022-10-26T16:40:59;27.42;;;15.40;;
69260;SDS011;56378;52.404;20.816;2022-10-26T16:43:29;27.25;;;14.02;;
69260;SDS011;56378;52.404;20.816;2022-10-26T16:45:56;27.03;;;13.33;;
69260;SDS011;56378;52.404;20.816;2022-10-26T16:48:22;23.67;;;12.68;;
69260;SDS011;56378;52.404;20.816;2022-10-26T16:50:48;24.52;;;11.93;;
69260;SDS011;56378;52.404;20.816;2022-10-26T16:53:14;23.53;;;12.13;;
69260;SDS011;56378;52.404;20.816;2022-10-26T16:55:40;24.90;;;13.35;;
69260;SDS011;56378;52.404;20.816;2022-10-26T16:58:05;26.03;;;14.27;;
69260;SDS011;56378;52.404;20.816;2022-10-26T17:00:33;24.95;;;14.00;;
69260;SDS011;56378;52.404;20.816;2022-10-26T17:03:00;25.42;;;12.88;;
69260;SDS011;56378;52.404;20.816;2022-10-26T17:05:27;22.85;;;12.60;;